Time;durP1;ratioP1;P1;durP2;ratioP2;P2;SDS_P1;SDS_P2;PMS_P1;PMS_P2;Temp;Humidity;BMP_temperature;BMP_pressure;BME280_temperature;BME280_humidity;BME280_pressure;Samples;Min_cycle;Max_cycle;Signal;HPM_P1;HPM_P2
2022/02/19 00:02:18;;;;;;;3.00;2.27;;;22.80;53.70;;;;;;6203877;23;20177;-82
2022/02/19 00:04:47;;;;;;;3.17;2.33;;;22.80;53.70;;;;;;6178783;23;20500;-83
2022/02/19 00:07:15;;;;;;;4.47;3.17;;;22.80;53.70;;;;;;6154731;23;20399;-82
2022/02/19 00:09:43;;;;;;;2.90;2.17;;;22.80;53.70;;;;;;6178622;23;20391;-82
2022/02/19 00:12:13;;;;;;;3.60;2.70;;;22.80;53.70;;;;;;6178301;23;20412;-83
2022/02/19 00:14:39;;;;;;;3.57;2.60;;;22.80;53.70;;;;;;6154149;23;20407;-83
2022/02/19 00:17:05;;;;;;;2.30;2.00;;;22.80;53.70;;;;;;6153590;23;20515;-83
2022/02/19 00:19:33;;;;;;;3.10;2.57;;;22.80;53.70;;;;;;6178972;23;20448;-83
2022/02/19 00:21:59;;;;;;;3.40;2.23;;;22.80;53.70;;;;;;6179074;23;20372;-83
2022/02/19 00:24:26;;;;;;;2.50;2.20;;;22.80;53.70;;;;;;6178559;23;20418;-83
2022/02/19 00:26:54;;;;;;;2.50;2.30;;;22.80;53.70;;;;;;6154185;23;20384;-83
2022/02/19 00:29:20;;;;;;;2.60;2.37;;;22.80;53.60;;;;;;6153755;23;20387;-83
2022/02/19 00:31:52;;;;;;;2.70;2.10;;;22.80;53.60;;;;;;6178132;23;20400;-83
2022/02/19 00:34:19;;;;;;;2.80;2.43;;;22.80;53.60;;;;;;6153559;23;20392;-83
2022/02/19 00:36:48;;;;;;;2.70;2.30;;;22.80;53.60;;;;;;6153616;23;20452;-83
2022/02/19 00:39:17;;;;;;;2.63;2.20;;;22.80;53.60;;;;;;6153699;23;20518;-83
2022/02/19 00:41:45;;;;;;;3.00;2.30;;;22.80;53.60;;;;;;6178816;23;20388;-82
2022/02/19 00:44:12;;;;;;;2.77;2.40;;;22.80;53.60;;;;;;6156170;23;20384;-83
2022/02/19 00:46:39;;;;;;;2.60;2.30;;;22.80;53.60;;;;;;6203577;23;20403;-82
2022/02/19 00:49:11;;;;;;;2.87;2.07;;;22.80;53.60;;;;;;6179425;23;20364;-83
2022/02/19 00:51:39;;;;;;;2.50;2.10;;;22.80;53.60;;;;;;6179167;23;20448;-83
2022/02/19 00:54:05;;;;;;;2.63;1.97;;;22.80;53.60;;;;;;6178741;23;20387;-83
2022/02/19 00:56:31;;;;;;;2.60;2.40;;;22.80;53.60;;;;;;6179833;23;20405;-82
2022/02/19 00:58:57;;;;;;;2.20;2.00;;;22.80;53.60;;;;;;6203944;23;20432;-83
2022/02/19 01:01:25;;;;;;;2.60;2.00;;;22.80;53.60;;;;;;6203230;23;20410;-83
2022/02/19 01:04:00;;;;;;;2.30;2.10;;;22.80;53.60;;;;;;6180261;23;20376;-83
2022/02/19 01:06:27;;;;;;;2.37;2.10;;;22.80;53.60;;;;;;6176390;23;20388;-82
2022/02/19 01:08:53;;;;;;;3.30;2.40;;;22.80;53.60;;;;;;6179015;23;20395;-82
2022/02/19 01:11:22;;;;;;;2.63;2.20;;;22.80;53.60;;;;;;6178541;23;20439;-82
2022/02/19 01:13:52;;;;;;;3.00;2.27;;;22.80;53.70;;;;;;6179111;23;20456;-83
2022/02/19 01:16:20;;;;;;;5.03;2.47;;;22.80;53.60;;;;;;6204205;23;20415;-83
2022/02/19 01:18:47;;;;;;;2.13;1.93;;;22.80;53.70;;;;;;6204342;23;20427;-83
2022/02/19 01:21:19;;;;;;;2.47;2.23;;;22.80;53.60;;;;;;6204299;23;20376;-82
2022/02/19 01:23:50;;;;;;;2.80;2.30;;;22.80;53.70;;;;;;6179782;23;20388;-83
2022/02/19 01:26:19;;;;;;;2.70;1.80;;;22.80;53.60;;;;;;6157490;23;20384;-83
2022/02/19 01:28:48;;;;;;;3.17;2.37;;;22.80;53.60;;;;;;6157674;23;20396;-83
2022/02/19 01:31:15;;;;;;;2.00;1.77;;;22.80;53.60;;;;;;6180956;23;20363;-82
2022/02/19 01:33:43;;;;;;;2.33;2.07;;;22.80;53.60;;;;;;6181915;23;20384;-82
2022/02/19 01:36:11;;;;;;;2.13;1.70;;;22.80;53.60;;;;;;6205794;23;20388;-82
2022/02/19 01:38:44;;;;;;;3.10;2.00;;;22.80;53.60;;;;;;6180959;23;20431;-82
2022/02/19 01:41:13;;;;;;;2.30;1.90;;;22.80;53.60;;;;;;6157424;23;20380;-84
2022/02/19 01:43:39;;;;;;;2.47;1.83;;;22.80;53.60;;;;;;6181374;23;20390;-83
2022/02/19 01:46:07;;;;;;;2.00;1.53;;;22.80;53.60;;;;;;6181071;23;20387;-82
2022/02/19 01:48:34;;;;;;;2.20;1.87;;;22.80;53.60;;;;;;6181269;23;20395;-83
2022/02/19 01:51:00;;;;;;;3.33;2.80;;;22.80;53.60;;;;;;6156233;23;20392;-83
2022/02/19 01:53:29;;;;;;;3.07;2.00;;;22.80;53.60;;;;;;6156662;23;20380;-83
2022/02/19 01:55:58;;;;;;;3.50;2.20;;;22.80;53.60;;;;;;6181714;23;20462;-83
2022/02/19 01:58:25;;;;;;;2.17;1.90;;;22.80;53.60;;;;;;6180484;23;20391;-83
2022/02/19 02:00:54;;;;;;;2.87;1.70;;;22.80;53.60;;;;;;6182283;23;20375;-83
2022/02/19 02:03:21;;;;;;;2.77;1.93;;;22.80;53.60;;;;;;6180826;23;20392;-83
2022/02/19 02:05:47;;;;;;;2.10;1.80;;;22.80;53.60;;;;;;6156439;23;20464;-82
2022/02/19 02:08:26;;;;;;;2.60;1.90;;;22.80;53.60;;;;;;6180708;23;20691;-82
2022/02/19 02:10:52;;;;;;;2.93;1.93;;;22.80;53.60;;;;;;6181494;23;20380;-82
2022/02/19 02:13:26;;;;;;;1.90;1.70;;;22.80;53.60;;;;;;6205455;23;20411;-82
2022/02/19 02:15:57;;;;;;;1.67;1.40;;;22.80;53.60;;;;;;6180281;23;20444;-82
2022/02/19 02:18:25;;;;;;;2.13;1.67;;;22.80;53.60;;;;;;6157037;23;20345;-82
2022/02/19 02:20:53;;;;;;;2.50;2.00;;;22.80;53.60;;;;;;6205457;23;20374;-82
2022/02/19 02:23:25;;;;;;;2.47;2.03;;;22.80;53.60;;;;;;6177570;23;20392;-82
2022/02/19 02:25:56;;;;;;;1.93;1.57;;;22.70;53.50;;;;;;6181070;23;20414;-83
2022/02/19 02:28:23;;;;;;;4.30;1.90;;;22.80;53.60;;;;;;6156414;23;20384;-82
2022/02/19 02:30:56;;;;;;;2.00;1.80;;;22.80;53.60;;;;;;6167747;23;20387;-82
2022/02/19 02:33:23;;;;;;;2.20;1.73;;;22.80;53.60;;;;;;6181677;23;20427;-82
2022/02/19 02:35:53;;;;;;;2.10;1.90;;;22.80;53.60;;;;;;6180144;23;20387;-83
2022/02/19 02:38:22;;;;;;;2.07;1.73;;;22.80;53.60;;;;;;6181334;23;20399;-83
2022/02/19 02:40:49;;;;;;;2.50;2.03;;;22.80;53.60;;;;;;6180502;23;20687;-82
2022/02/19 02:43:36;;;;;;;2.70;1.80;;;22.80;53.60;;;;;;6181158;23;20387;-82
2022/02/19 02:46:02;;;;;;;2.20;1.70;;;22.80;53.60;;;;;;6180533;23;20427;-82
2022/02/19 02:48:28;;;;;;;2.73;1.80;;;22.80;53.60;;;;;;6131438;23;20384;-83
2022/02/19 02:50:56;;;;;;;2.40;1.80;;;22.80;53.60;;;;;;6180207;23;20412;-83
2022/02/19 02:53:26;;;;;;;2.10;1.50;;;22.80;53.50;;;;;;6181821;23;20376;-83
2022/02/19 02:55:54;;;;;;;2.27;1.70;;;22.80;53.60;;;;;;6180332;23;20368;-83
2022/02/19 02:58:27;;;;;;;2.77;1.90;;;22.80;53.50;;;;;;6180938;23;20369;-83
2022/02/19 03:00:56;;;;;;;1.77;1.60;;;22.80;53.50;;;;;;6180732;23;20380;-82
2022/02/19 03:03:24;;;;;;;1.60;1.40;;;22.80;53.50;;;;;;6155903;23;20403;-83
2022/02/19 03:05:56;;;;;;;1.77;1.60;;;22.80;53.50;;;;;;6180301;23;20464;-83
2022/02/19 03:08:27;;;;;;;1.80;1.40;;;22.80;53.50;;;;;;6180214;23;20388;-83
2022/02/19 03:10:58;;;;;;;2.53;1.87;;;22.80;53.50;;;;;;6155745;23;20431;-82
2022/02/19 03:13:25;;;;;;;2.70;1.73;;;22.80;53.50;;;;;;6179855;23;20424;-82
2022/02/19 03:15:57;;;;;;;1.80;1.53;;;22.80;53.50;;;;;;6181219;23;20380;-82
2022/02/19 03:18:23;;;;;;;2.20;1.80;;;22.80;53.50;;;;;;6181494;23;20380;-82
2022/02/19 03:20:53;;;;;;;2.40;1.90;;;22.80;53.50;;;;;;6181057;23;20439;-82
2022/02/19 03:23:18;;;;;;;1.90;1.70;;;22.80;53.50;;;;;;6181157;23;20376;-82
2022/02/19 03:25:44;;;;;;;2.40;1.87;;;22.80;53.60;;;;;;6155033;23;20418;-82
2022/02/19 03:28:10;;;;;;;2.00;1.53;;;22.80;53.50;;;;;;6179789;23;20191;-82
2022/02/19 03:30:47;;;;;;;1.77;1.67;;;22.80;53.60;;;;;;6180996;23;20451;-83
2022/02/19 03:33:14;;;;;;;2.17;1.60;;;22.80;53.50;;;;;;6181048;23;20355;-83
2022/02/19 03:35:42;;;;;;;2.20;1.50;;;22.80;53.60;;;;;;6180035;23;20488;-82
2022/02/19 03:41:51;;;;;;;2.10;1.90;;;22.80;53.60;;;;;;6118381;23;20463;-81
2022/02/19 03:44:18;;;;;;;1.87;1.57;;;22.70;53.60;;;;;;6180288;23;20390;-81
2022/02/19 03:46:46;;;;;;;1.63;1.37;;;22.70;53.60;;;;;;6179700;23;20384;-81
2022/02/19 03:49:14;;;;;;;3.10;2.07;;;22.70;53.60;;;;;;6180597;23;20431;-81
2022/02/19 03:51:47;;;;;;;2.20;1.80;;;22.70;53.60;;;;;;6179710;23;20384;-81
2022/02/19 03:54:16;;;;;;;1.93;1.57;;;22.70;53.60;;;;;;6180766;23;20428;-81
2022/02/19 03:56:44;;;;;;;1.90;1.67;;;22.70;53.60;;;;;;6181185;23;20400;-83
2022/02/19 03:59:14;;;;;;;1.93;1.70;;;22.70;53.60;;;;;;6180957;23;20430;-83
2022/02/19 04:01:57;;;;;;;1.90;1.60;;;22.70;53.60;;;;;;6180913;23;20384;-81
2022/02/19 04:04:23;;;;;;;2.43;1.80;;;22.70;53.60;;;;;;6158281;23;20396;-82
2022/02/19 04:07:09;;;;;;;1.93;1.50;;;22.70;53.60;;;;;;6180292;23;20457;-82
2022/02/19 04:09:36;;;;;;;1.73;1.37;;;22.70;53.60;;;;;;6180905;23;20379;-82
2022/02/19 04:15:28;;;;;;;1.50;1.23;;;22.70;53.60;;;;;;6180665;23;20224;-82
2022/02/19 04:17:55;;;;;;;1.93;1.60;;;22.70;53.60;;;;;;6204519;23;20415;-81
2022/02/19 04:20:29;;;;;;;1.50;1.33;;;22.70;53.60;;;;;;6180636;23;20463;-81
2022/02/19 04:22:57;;;;;;;1.93;1.70;;;22.70;53.60;;;;;;6157139;23;20368;-81
2022/02/19 04:25:25;;;;;;;2.20;1.63;;;22.70;53.60;;;;;;6154945;23;20387;-82
2022/02/19 04:28:01;;;;;;;1.90;1.73;;;22.70;53.60;;;;;;6155381;23;20387;-82
2022/02/19 04:30:29;;;;;;;2.43;2.00;;;22.70;53.60;;;;;;6180742;23;20363;-81
2022/02/19 04:32:58;;;;;;;1.77;1.40;;;22.70;53.60;;;;;;6179101;23;20463;-81
2022/02/19 04:35:34;;;;;;;1.93;1.70;;;22.70;53.60;;;;;;6156160;23;20415;-81
2022/02/19 04:38:02;;;;;;;2.17;1.50;;;22.70;53.60;;;;;;6204564;23;20388;-81
2022/02/19 04:40:37;;;;;;;1.63;1.30;;;22.70;53.50;;;;;;6179072;23;20427;-82
2022/02/19 04:43:13;;;;;;;1.70;1.60;;;22.70;53.50;;;;;;6157535;23;20387;-81
2022/02/19 04:45:42;;;;;;;1.60;1.37;;;22.70;53.50;;;;;;6180596;23;20380;-81
2022/02/19 04:48:31;;;;;;;2.20;1.63;;;22.70;53.50;;;;;;6154792;23;20384;-81
2022/02/19 04:51:02;;;;;;;1.73;1.20;;;22.70;53.50;;;;;;6179248;23;20403;-81
2022/02/19 04:53:32;;;;;;;1.73;1.37;;;22.70;53.50;;;;;;6202015;23;20934;-82
2022/02/19 04:55:58;;;;;;;1.67;1.30;;;22.70;53.50;;;;;;6155135;23;20425;-81
2022/02/19 04:58:30;;;;;;;2.23;1.33;;;22.70;53.60;;;;;;6180417;23;20384;-81
2022/02/19 05:00:57;;;;;;;1.50;1.20;;;22.70;53.50;;;;;;6154704;23;20400;-82
2022/02/19 05:03:23;;;;;;;1.30;1.10;;;22.70;53.50;;;;;;6180130;23;20466;-82
2022/02/19 05:05:50;;;;;;;2.10;1.10;;;22.70;53.50;;;;;;6178905;23;20388;-82
2022/02/19 05:11:42;;;;;;;1.63;1.20;;;22.70;53.50;;;;;;6143915;23;20690;-82
2022/02/19 05:17:56;;;;;;;1.60;1.40;;;22.60;53.50;;;;;;6180715;23;20395;-81
2022/02/19 05:20:26;;;;;;;1.70;1.30;;;22.60;53.50;;;;;;6179939;23;20469;-82
2022/02/19 05:22:58;;;;;;;2.00;1.50;;;22.50;53.50;;;;;;6180940;23;20423;-81
2022/02/19 05:25:24;;;;;;;2.20;1.50;;;22.60;53.60;;;;;;6204642;23;20424;-81
2022/02/19 05:27:52;;;;;;;1.50;1.40;;;22.60;53.60;;;;;;6178187;23;20380;-81
2022/02/19 05:30:21;;;;;;;1.63;1.37;;;22.60;53.60;;;;;;6203116;23;20437;-81
2022/02/19 05:32:53;;;;;;;2.13;1.53;;;22.50;53.50;;;;;;6179253;23;20404;-82
2022/02/19 05:35:27;;;;;;;1.43;1.23;;;22.50;53.50;;;;;;6179219;23;20368;-81
2022/02/19 05:37:55;;;;;;;1.53;1.20;;;22.50;53.60;;;;;;6179427;23;20367;-81
2022/02/19 05:40:22;;;;;;;1.77;1.40;;;22.50;53.60;;;;;;6179282;23;20431;-81
2022/02/19 05:42:51;;;;;;;1.43;1.20;;;22.50;53.60;;;;;;6204116;23;20380;-81
2022/02/19 05:45:22;;;;;;;1.43;1.10;;;22.50;53.60;;;;;;6179662;23;20416;-81
2022/02/19 05:47:56;;;;;;;1.50;1.23;;;22.50;53.60;;;;;;6180837;23;20380;-81
2022/02/19 05:50:26;;;;;;;1.73;1.37;;;22.50;53.60;;;;;;6180177;23;20367;-82
2022/02/19 05:52:56;;;;;;;1.70;1.60;;;22.50;53.60;;;;;;6180701;23;20383;-81
2022/02/19 05:55:33;;;;;;;1.50;1.23;;;22.50;53.60;;;;;;6177880;23;20391;-82
2022/02/19 05:58:13;;;;;;;1.20;1.00;;;22.50;53.60;;;;;;6179674;23;20392;-81
2022/02/19 06:00:39;;;;;;;2.73;1.53;;;22.50;53.60;;;;;;6199477;23;20431;-81
2022/02/19 06:03:08;;;;;;;1.60;1.40;;;22.50;53.60;;;;;;6180040;23;20380;-81
2022/02/19 06:05:37;;;;;;;1.47;1.27;;;22.50;53.60;;;;;;6179526;23;20387;-81
2022/02/19 06:08:04;;;;;;;1.93;1.77;;;22.50;53.60;;;;;;6179659;23;20403;-81
2022/02/19 06:10:37;;;;;;;1.73;1.20;;;22.50;53.60;;;;;;6179612;23;20379;-81
2022/02/19 06:13:05;;;;;;;1.73;1.20;;;22.50;53.60;;;;;;6206049;23;20363;-82
2022/02/19 06:15:32;;;;;;;1.40;1.10;;;22.50;53.60;;;;;;6181956;23;20561;-82
2022/02/19 06:17:58;;;;;;;1.90;1.20;;;22.50;53.60;;;;;;6179541;23;20411;-82
2022/02/19 06:20:27;;;;;;;1.97;1.43;;;22.50;53.60;;;;;;6180822;23;20435;-81
2022/02/19 06:23:00;;;;;;;2.20;1.50;;;22.50;53.60;;;;;;6181349;23;20368;-82
2022/02/19 06:25:29;;;;;;;1.63;1.10;;;22.60;53.70;;;;;;6180543;23;20431;-81
2022/02/19 06:27:58;;;;;;;1.60;1.17;;;22.50;53.60;;;;;;6182178;23;20364;-81
2022/02/19 06:30:24;;;;;;;1.90;1.30;;;22.50;53.60;;;;;;6156963;23;20399;-82
2022/02/19 06:32:51;;;;;;;1.77;1.23;;;22.50;53.60;;;;;;6156121;23;20379;-81
2022/02/19 06:35:17;;;;;;;1.50;1.17;;;22.60;53.60;;;;;;6184069;23;20375;-81
2022/02/19 06:37:49;;;;;;;1.63;1.17;;;22.50;53.60;;;;;;6159174;23;20388;-83
2022/02/19 06:40:17;;;;;;;1.37;1.23;;;22.60;53.60;;;;;;6181886;23;20483;-82
2022/02/19 06:42:45;;;;;;;2.13;1.83;;;22.50;53.60;;;;;;6181268;23;20384;-82
2022/02/19 06:45:13;;;;;;;3.73;1.53;;;22.60;53.60;;;;;;6180629;23;20389;-81
2022/02/19 06:47:50;;;;;;;2.90;1.20;;;22.50;53.30;;;;;;6156023;23;20419;-80
2022/02/19 06:50:27;;;;;;;3.10;1.67;;;22.60;52.90;;;;;;6177784;23;20372;-82
2022/02/19 06:52:55;;;;;;;5.40;1.60;;;22.50;52.40;;;;;;6183155;23;20383;-81
2022/02/19 06:55:21;;;;;;;3.33;1.43;;;22.50;52.20;;;;;;6181788;23;20392;-81
2022/02/19 06:58:00;;;;;;;2.80;1.53;;;22.50;52.20;;;;;;6206095;23;20372;-81
2022/02/19 07:00:30;;;;;;;3.70;1.10;;;22.50;52.30;;;;;;6157529;23;20422;-81
2022/02/19 07:03:01;;;;;;;3.53;1.50;;;22.50;52.50;;;;;;6182160;23;20352;-81
2022/02/19 07:05:28;;;;;;;3.73;1.30;;;22.40;52.50;;;;;;6179998;23;20419;-81
2022/02/19 07:07:54;;;;;;;3.40;1.60;;;22.50;52.70;;;;;;6177194;23;20451;-81
2022/02/19 07:10:25;;;;;;;2.30;1.20;;;22.40;52.70;;;;;;6182519;23;20375;-81
2022/02/19 07:12:53;;;;;;;1.67;1.20;;;22.40;52.80;;;;;;6180639;23;20388;-81
2022/02/19 07:15:20;;;;;;;4.50;1.27;;;22.40;52.90;;;;;;6156618;23;20390;-81
2022/02/19 07:17:51;;;;;;;5.63;1.80;;;22.40;52.90;;;;;;6158232;23;20399;-81
2022/02/19 07:20:20;;;;;;;2.60;1.33;;;22.40;53.00;;;;;;6183766;23;20427;-82
2022/02/19 07:22:48;;;;;;;3.40;1.50;;;22.40;53.00;;;;;;6179305;23;20744;-82
2022/02/19 07:25:16;;;;;;;1.70;1.20;;;22.40;53.00;;;;;;6182929;23;20377;-83
2022/02/19 07:27:44;;;;;;;3.80;1.23;;;22.40;53.00;;;;;;6181679;23;20384;-84
2022/02/19 07:30:12;;;;;;;4.90;1.60;;;22.40;52.90;;;;;;6207681;23;20419;-80
2022/02/19 07:32:38;;;;;;;2.57;1.20;;;22.40;52.50;;;;;;6182161;23;20368;-83
2022/02/19 07:35:07;;;;;;;2.60;1.40;;;22.40;51.80;;;;;;6204663;23;20395;-82
2022/02/19 07:37:35;;;;;;;5.23;2.40;;;22.40;50.70;;;;;;6177457;23;20494;-87
2022/02/19 07:40:01;;;;;;;6.70;1.90;;;22.40;50.10;;;;;;6201154;23;20432;-85
2022/02/19 07:42:27;;;;;;;4.97;1.43;;;22.30;49.50;;;;;;6177010;23;20822;-82
2022/02/19 07:44:55;;;;;;;4.77;1.67;;;22.30;49.30;;;;;;6176855;23;20396;-84
2022/02/19 07:47:30;;;;;;;4.50;1.50;;;22.30;49.10;;;;;;6177245;23;20152;-83
2022/02/19 07:58:19;;;;;;;4.87;2.00;;;22.10;48.70;;;;;;6179616;23;20863;-81
2022/02/19 08:00:46;;;;;;;7.50;2.30;;;22.10;48.60;;;;;;6155087;23;20418;-81
2022/02/19 08:03:18;;;;;;;4.70;1.77;;;22.10;48.50;;;;;;6202937;23;20407;-81
2022/02/19 08:05:45;;;;;;;3.30;1.27;;;22.10;48.50;;;;;;6179566;23;20391;-85
2022/02/19 08:08:11;;;;;;;8.80;1.77;;;22.10;48.50;;;;;;6178532;23;20372;-81
2022/02/19 08:10:37;;;;;;;3.87;1.10;;;22.10;48.30;;;;;;6201892;23;20156;-86
2022/02/19 08:13:04;;;;;;;3.67;1.50;;;22.10;48.30;;;;;;6174056;23;20171;-84
2022/02/19 08:15:31;;;;;;;3.13;1.60;;;22.10;48.70;;;;;;6174432;23;20400;-86
2022/02/19 08:17:58;;;;;;;8.60;2.00;;;22.00;48.60;;;;;;6152736;23;20423;-83
2022/02/19 08:20:26;;;;;;;3.70;1.60;;;22.00;48.50;;;;;;6181047;23;20518;-80
2022/02/19 08:22:53;;;;;;;9.23;1.90;;;22.00;48.30;;;;;;6182630;23;20375;-80
2022/02/19 08:25:31;;;;;;;2.47;1.27;;;22.00;48.50;;;;;;6181903;23;20376;-80
2022/02/19 08:27:57;;;;;;;6.10;1.60;;;22.00;48.70;;;;;;6182815;23;20408;-80
2022/02/19 08:30:29;;;;;;;5.20;1.30;;;22.00;48.80;;;;;;6182965;23;20538;-80
2022/02/19 08:32:59;;;;;;;2.90;1.53;;;22.00;48.90;;;;;;6183202;23;20336;-80
2022/02/19 08:35:27;;;;;;;2.63;1.67;;;22.00;49.10;;;;;;6183154;23;20395;-79
2022/02/19 08:37:54;;;;;;;3.97;1.40;;;22.00;49.20;;;;;;6182902;23;20360;-81
2022/02/19 08:40:23;;;;;;;3.03;1.40;;;22.00;49.30;;;;;;6182631;23;20431;-81
2022/02/19 08:42:49;;;;;;;2.70;1.30;;;22.00;49.40;;;;;;6134321;23;20382;-81
2022/02/19 08:45:16;;;;;;;3.30;1.40;;;22.00;49.60;;;;;;6182963;23;20376;-81
2022/02/19 08:47:44;;;;;;;2.70;1.10;;;22.00;49.70;;;;;;6183448;23;20392;-81
2022/02/19 08:50:11;;;;;;;4.77;2.63;;;22.00;49.80;;;;;;6182841;23;20412;-81
2022/02/19 08:52:50;;;;;;;6.10;1.30;;;22.00;50.00;;;;;;6183070;23;20371;-81
2022/02/19 08:55:17;;;;;;;2.83;1.23;;;22.00;49.90;;;;;;6182401;23;20471;-81
2022/02/19 08:57:45;;;;;;;6.97;1.53;;;22.00;50.00;;;;;;6182150;23;20379;-81
2022/02/19 09:00:14;;;;;;;5.87;1.70;;;22.00;50.10;;;;;;6183236;23;20491;-81
2022/02/19 09:02:43;;;;;;;2.80;1.33;;;22.00;50.70;;;;;;6182632;23;20368;-81
2022/02/19 09:05:13;;;;;;;5.10;1.17;;;22.00;50.20;;;;;;6156445;23;20372;-81
2022/02/19 09:07:41;;;;;;;3.40;1.33;;;22.00;50.20;;;;;;6182665;23;20384;-81
2022/02/19 09:10:15;;;;;;;2.70;1.13;;;22.10;50.30;;;;;;6182409;23;20388;-81
2022/02/19 09:12:47;;;;;;;6.73;1.40;;;22.10;50.40;;;;;;6182151;23;20349;-81
2022/02/19 09:15:15;;;;;;;3.47;1.50;;;22.10;50.40;;;;;;6181968;23;20336;-81
2022/02/19 09:17:41;;;;;;;1.97;1.20;;;22.10;50.50;;;;;;6182272;23;20371;-81
2022/02/19 09:20:10;;;;;;;1.97;1.10;;;22.10;50.50;;;;;;6181840;23;20419;-81
2022/02/19 09:22:38;;;;;;;5.07;1.60;;;22.10;50.50;;;;;;6181965;23;20383;-81
2022/02/19 09:25:12;;;;;;;2.17;1.20;;;22.10;50.60;;;;;;6183015;23;20411;-81
2022/02/19 09:27:39;;;;;;;5.23;1.27;;;22.10;50.60;;;;;;6155880;23;20418;-81
2022/02/19 09:30:10;;;;;;;1.83;1.03;;;22.10;50.70;;;;;;6157695;23;20380;-81
2022/02/19 09:32:38;;;;;;;1.50;1.10;;;22.10;50.70;;;;;;6157194;23;20364;-81
2022/02/19 09:35:12;;;;;;;2.20;1.20;;;22.10;50.80;;;;;;6182002;23;20466;-81
2022/02/19 09:37:40;;;;;;;3.10;1.47;;;22.10;50.80;;;;;;6181332;23;20404;-81
2022/02/19 09:40:08;;;;;;;2.90;1.13;;;22.10;51.30;;;;;;6181864;23;20388;-81
2022/02/19 09:42:36;;;;;;;2.40;1.20;;;22.10;50.90;;;;;;6179359;23;20415;-81
2022/02/19 09:45:07;;;;;;;7.50;1.37;;;22.10;50.90;;;;;;6205754;23;20388;-81
2022/02/19 09:47:35;;;;;;;2.57;1.10;;;22.10;50.90;;;;;;6182713;23;20419;-81
2022/02/19 09:50:01;;;;;;;2.73;1.17;;;22.10;50.90;;;;;;6182948;23;20360;-81
2022/02/19 09:52:31;;;;;;;2.40;1.17;;;22.10;51.00;;;;;;6183325;23;20384;-81
2022/02/19 09:55:00;;;;;;;1.63;1.00;;;22.10;51.00;;;;;;6183050;23;20463;-81
2022/02/19 09:57:26;;;;;;;1.80;1.30;;;22.10;51.10;;;;;;6183852;23;20379;-81
2022/02/19 09:59:52;;;;;;;1.97;1.17;;;22.10;51.10;;;;;;6184088;23;20479;-81
2022/02/19 10:02:36;;;;;;;1.20;0.93;;;22.10;51.10;;;;;;6208935;23;20420;-81
2022/02/19 10:05:24;;;;;;;2.97;1.50;;;22.10;51.10;;;;;;6184713;23;20363;-81
2022/02/19 10:08:08;;;;;;;1.67;1.17;;;22.10;51.20;;;;;;6162606;23;20419;-81
2022/02/19 10:10:37;;;;;;;2.70;0.90;;;22.10;51.20;;;;;;6183705;23;20379;-81
2022/02/19 10:13:06;;;;;;;1.90;1.20;;;22.10;51.20;;;;;;6183465;23;20392;-81
2022/02/19 10:15:46;;;;;;;2.30;1.27;;;22.10;51.30;;;;;;6184708;23;20396;-81
2022/02/19 10:18:33;;;;;;;2.10;0.97;;;22.10;51.30;;;;;;6160062;23;20372;-81
2022/02/19 10:21:22;;;;;;;2.93;1.20;;;22.10;51.30;;;;;;6184177;23;20411;-81
2022/02/19 10:23:59;;;;;;;4.53;1.40;;;22.10;51.30;;;;;;6184341;23;20372;-81
2022/02/19 10:26:33;;;;;;;1.80;1.00;;;22.10;51.40;;;;;;6184287;23;20335;-81
2022/02/19 10:29:06;;;;;;;1.40;0.90;;;22.10;51.40;;;;;;6208525;23;20894;-81
2022/02/19 10:31:35;;;;;;;1.60;1.10;;;22.10;51.40;;;;;;6208095;23;20391;-81
2022/02/19 10:34:16;;;;;;;2.10;1.10;;;22.10;51.40;;;;;;6183923;23;20372;-81
2022/02/19 10:36:50;;;;;;;2.27;1.07;;;22.10;51.40;;;;;;6184571;23;20360;-81
2022/02/19 10:39:48;;;;;;;3.50;1.53;;;22.10;51.50;;;;;;6183594;23;20434;-81
2022/02/19 10:42:15;;;;;;;2.20;0.93;;;22.10;51.50;;;;;;6184018;23;20388;-81
2022/02/19 10:44:46;;;;;;;1.60;1.00;;;22.10;51.50;;;;;;6182613;23;20470;-81
2022/02/19 10:47:35;;;;;;;2.27;0.90;;;22.10;51.50;;;;;;6183527;23;20384;-81
2022/02/19 10:50:21;;;;;;;2.43;1.10;;;22.10;51.50;;;;;;6160418;23;20380;-81
2022/02/19 10:52:57;;;;;;;5.00;1.00;;;22.20;51.60;;;;;;6184244;23;20367;-81
2022/02/19 10:55:34;;;;;;;1.23;0.80;;;22.10;51.60;;;;;;6184531;23;20447;-81
2022/02/19 10:58:13;;;;;;;2.30;1.33;;;22.20;51.70;;;;;;6207802;23;20443;-81
2022/02/19 11:00:42;;;;;;;2.30;1.20;;;22.10;51.60;;;;;;6183214;23;20526;-81
2022/02/19 11:03:10;;;;;;;1.90;0.90;;;22.20;52.30;;;;;;6184129;23;20428;-81
2022/02/19 11:05:37;;;;;;;1.30;0.97;;;22.20;51.70;;;;;;6184001;23;20388;-81
2022/02/19 11:08:04;;;;;;;1.33;0.90;;;22.20;51.70;;;;;;6208075;23;20395;-81
2022/02/19 11:10:33;;;;;;;1.37;1.00;;;22.20;51.70;;;;;;6183480;23;20360;-81
2022/02/19 11:13:04;;;;;;;1.50;0.97;;;22.20;51.70;;;;;;6184187;23;20372;-81
2022/02/19 11:15:32;;;;;;;1.73;0.80;;;22.20;51.70;;;;;;6184338;23;20447;-81
2022/02/19 11:18:05;;;;;;;1.90;1.20;;;22.20;51.70;;;;;;6184073;23;20392;-81
2022/02/19 11:20:37;;;;;;;1.70;1.27;;;22.20;51.70;;;;;;6183054;23;20467;-81
2022/02/19 11:23:06;;;;;;;2.50;1.00;;;22.20;51.70;;;;;;6182595;23;20392;-81
2022/02/19 11:25:34;;;;;;;1.33;1.00;;;22.20;51.70;;;;;;6183578;23;20447;-81
2022/02/19 11:28:08;;;;;;;2.60;1.10;;;22.20;51.70;;;;;;6184387;23;20379;-81
2022/02/19 11:30:45;;;;;;;1.77;1.17;;;22.20;51.70;;;;;;6182965;23;20359;-81
2022/02/19 11:33:17;;;;;;;2.10;0.97;;;22.30;51.70;;;;;;6183198;23;20392;-81
2022/02/19 11:35:46;;;;;;;2.10;1.00;;;22.30;51.70;;;;;;6183438;23;20360;-81
2022/02/19 11:38:32;;;;;;;1.30;1.00;;;22.30;51.70;;;;;;6207948;23;20403;-81
2022/02/19 11:41:01;;;;;;;2.77;1.37;;;22.30;51.70;;;;;;6183210;23;20403;-81
2022/02/19 11:43:33;;;;;;;2.10;1.00;;;22.30;51.70;;;;;;6183560;23;20360;-81
2022/02/19 11:46:07;;;;;;;1.90;0.93;;;22.30;51.80;;;;;;6182893;23;20435;-81
2022/02/19 11:48:48;;;;;;;1.13;0.87;;;22.30;51.80;;;;;;6182252;23;20382;-81
2022/02/19 11:51:26;;;;;;;3.03;1.10;;;22.30;51.80;;;;;;6181156;23;20388;-81
2022/02/19 11:54:28;;;;;;;2.80;1.33;;;22.30;51.80;;;;;;6183926;23;20379;-81
2022/02/19 11:57:11;;;;;;;1.83;0.83;;;22.30;51.80;;;;;;6094774;23;20343;-81
2022/02/19 11:59:48;;;;;;;1.73;0.90;;;22.30;51.80;;;;;;6070205;23;20551;-81
2022/02/19 12:02:34;;;;;;;1.77;1.07;;;22.30;51.80;;;;;;6094029;23;20390;-81
2022/02/19 12:05:22;;;;;;;1.23;0.83;;;22.30;51.80;;;;;;6086931;23;20402;-81
2022/02/19 12:08:04;;;;;;;1.80;1.00;;;22.30;51.90;;;;;;6070006;23;20393;-81
2022/02/19 12:11:09;;;;;;;2.03;0.97;;;22.30;51.90;;;;;;6070617;23;20374;-81
2022/02/19 12:14:08;;;;;;;1.30;0.80;;;22.30;51.90;;;;;;6069081;23;20398;-81
2022/02/19 12:17:01;;;;;;;1.97;1.00;;;22.30;51.90;;;;;;6094455;23;20355;-81
2022/02/19 12:20:03;;;;;;;1.63;0.97;;;22.30;51.90;;;;;;6070118;23;20434;-81
2022/02/19 12:22:35;;;;;;;1.77;0.90;;;22.30;51.90;;;;;;6092801;23;20403;-81
2022/02/19 12:25:05;;;;;;;2.27;1.00;;;22.30;51.90;;;;;;6070068;23;20383;-81
2022/02/19 12:27:33;;;;;;;2.47;1.00;;;22.30;51.90;;;;;;6046676;23;20387;-81
2022/02/19 12:30:17;;;;;;;1.47;1.10;;;22.30;51.90;;;;;;6105314;23;20371;-81
2022/02/19 12:32:55;;;;;;;1.47;1.00;;;22.30;51.90;;;;;;6182299;23;20391;-81
2022/02/19 12:35:34;;;;;;;1.70;1.03;;;22.30;51.90;;;;;;6183719;23;20363;-81
2022/02/19 12:38:06;;;;;;;1.20;0.80;;;22.30;51.90;;;;;;6183690;23;20383;-81
2022/02/19 12:40:38;;;;;;;1.13;0.70;;;22.30;52.00;;;;;;6207642;23;20484;-81
2022/02/19 12:43:15;;;;;;;2.63;1.00;;;22.30;52.00;;;;;;6183496;23;20343;-81
2022/02/19 12:45:44;;;;;;;1.27;0.60;;;22.30;52.00;;;;;;6183188;23;20358;-81
2022/02/19 12:48:11;;;;;;;1.50;0.80;;;22.30;52.00;;;;;;6128194;23;20395;-81
2022/02/19 12:50:51;;;;;;;0.90;0.70;;;22.40;52.10;;;;;;6133912;23;20392;-81
2022/02/19 12:53:34;;;;;;;2.53;1.20;;;22.30;52.00;;;;;;6182912;23;20387;-81
2022/02/19 12:56:00;;;;;;;1.93;1.00;;;22.40;52.10;;;;;;6182170;23;20420;-81
2022/02/19 12:58:27;;;;;;;3.60;1.00;;;22.30;52.00;;;;;;6182902;23;20380;-81
2022/02/19 13:04:41;;;;;;;1.10;0.80;;;22.40;52.10;;;;;;6182626;23;20344;-81
2022/02/19 13:07:09;;;;;;;1.20;0.70;;;22.30;52.00;;;;;;6094283;23;20378;-81
2022/02/19 13:09:35;;;;;;;1.53;0.80;;;22.30;52.00;;;;;;6069275;23;20401;-81
2022/02/19 13:12:27;;;;;;;1.53;1.00;;;22.30;52.10;;;;;;6094018;23;20379;-81
2022/02/19 13:14:57;;;;;;;2.90;1.23;;;22.30;52.10;;;;;;6094127;23;20381;-81
2022/02/19 13:17:27;;;;;;;2.60;1.00;;;22.30;52.10;;;;;;6094018;23;20387;-81
2022/02/19 13:20:14;;;;;;;1.47;1.00;;;22.30;52.10;;;;;;6093966;23;20474;-81
2022/02/19 13:22:43;;;;;;;1.03;0.70;;;22.40;52.20;;;;;;6093637;23;20397;-81
2022/02/19 13:25:12;;;;;;;1.67;0.90;;;22.30;52.10;;;;;;6088544;23;20397;-81
2022/02/19 13:27:47;;;;;;;1.00;0.83;;;22.30;52.10;;;;;;6093747;23;20386;-81
2022/02/19 13:30:18;;;;;;;1.60;0.90;;;22.40;52.20;;;;;;6069116;23;20929;-81
2022/02/19 13:32:52;;;;;;;1.87;1.10;;;22.40;52.20;;;;;;6069589;23;20519;-81
2022/02/19 13:35:30;;;;;;;2.50;1.70;;;22.40;52.20;;;;;;6069830;23;20553;-81